Time;durP1;ratioP1;P1;durP2;ratioP2;P2;SDS_P1;SDS_P2;PMS_P1;PMS_P2;Temp;Humidity;BMP_temperature;BMP_pressure;BME280_temperature;BME280_humidity;BME280_pressure;Samples;Min_cycle;Max_cycle;Signal;HPM_P1;HPM_P2
2023/12/22 00:02:03;;;;;;;13.30;2.50;;;;;;;8.04;75.35;100238.78;5076080;28;20392;-65
2023/12/22 00:04:28;;;;;;;12.57;2.30;;;;;;;8.05;75.35;100239.59;5082089;28;20032;-65
2023/12/22 00:06:54;;;;;;;8.38;2.47;;;;;;;8.07;75.64;100237.44;5078803;28;20387;-65
2023/12/22 00:09:20;;;;;;;11.57;3.10;;;;;;;8.10;75.89;100237.78;5075923;28;20029;-65
2023/12/22 00:11:45;;;;;;;10.30;2.78;;;;;;;8.15;75.95;100244.47;5086796;28;20115;-65
2023/12/22 00:14:10;;;;;;;15.50;2.95;;;;;;;8.20;75.88;100236.25;5074748;28;20052;-65
2023/12/22 00:16:37;;;;;;;10.57;2.15;;;;;;;8.19;75.85;100234.59;5078879;28;20456;-65
2023/12/22 00:19:02;;;;;;;10.95;2.42;;;;;;;8.22;75.88;100242.38;5072660;28;20032;-65
2023/12/22 00:21:28;;;;;;;11.52;2.53;;;;;;;8.26;75.89;100257.38;5083279;28;20558;-65
2023/12/22 00:23:54;;;;;;;14.45;3.00;;;;;;;8.17;75.92;100253.34;5076203;28;20028;-65
2023/12/22 00:26:22;;;;;;;8.98;2.15;;;;;;;8.19;75.88;100276.91;5073316;28;20470;-65
2023/12/22 00:28:47;;;;;;;13.30;2.80;;;;;;;8.19;75.35;100273.28;5072595;28;20093;-66
2023/12/22 00:31:13;;;;;;;15.13;3.17;;;;;;;8.20;75.57;100291.56;5080847;28;20028;-65
2023/12/22 00:33:38;;;;;;;11.50;2.63;;;;;;;8.23;75.98;100280.81;5086376;28;20092;-65
2023/12/22 00:36:04;;;;;;;13.73;2.45;;;;;;;8.17;75.75;100258.88;5075374;28;20024;-65
2023/12/22 00:38:29;;;;;;;12.25;3.47;;;;;;;8.20;75.86;100286.03;5086420;28;20120;-65
2023/12/22 00:40:54;;;;;;;12.93;2.85;;;;;;;8.23;75.67;100274.47;5083134;28;20032;-65
2023/12/22 00:43:19;;;;;;;12.85;2.50;;;;;;;8.24;75.22;100278.91;5079559;28;20114;-64
2023/12/22 00:45:48;;;;;;;11.88;3.15;;;;;;;8.23;75.94;100277.22;5090128;28;20470;-65
2023/12/22 00:48:13;;;;;;;12.32;2.90;;;;;;;8.27;75.29;100284.75;5087542;28;20032;-65
2023/12/22 00:50:38;;;;;;;14.20;2.92;;;;;;;8.24;75.81;100288.03;5074719;28;20098;-65
2023/12/22 00:53:03;;;;;;;15.43;2.75;;;;;;;8.27;75.43;100287.53;5080737;28;20025;-66
2023/12/22 00:55:29;;;;;;;12.60;3.22;;;;;;;8.30;75.63;100277.91;5070624;28;20098;-65
2023/12/22 00:57:54;;;;;;;14.98;3.20;;;;;;;8.21;75.81;100271.09;5083003;28;20071;-65
2023/12/22 01:00:19;;;;;;;12.68;3.05;;;;;;;8.27;75.30;100281.16;5075305;28;20029;-65
2023/12/22 01:02:45;;;;;;;11.35;3.00;;;;;;;8.24;75.46;100276.97;5077615;28;20545;-66
2023/12/22 01:05:10;;;;;;;15.20;2.97;;;;;;;8.26;75.32;100272.03;5083785;28;20028;-65
2023/12/22 01:07:35;;;;;;;10.98;3.08;;;;;;;8.29;74.96;100279.84;5078052;28;20035;-65
2023/12/22 01:10:05;;;;;;;12.75;2.90;;;;;;;8.31;74.20;100282.34;5084118;28;20032;-65
2023/12/22 01:12:30;;;;;;;10.88;2.67;;;;;;;8.31;74.27;100268.50;5078130;28;20395;-65
2023/12/22 01:15:02;;;;;;;12.85;3.20;;;;;;;8.36;74.27;100268.59;5073089;28;20032;-65
2023/12/22 01:17:28;;;;;;;15.43;3.53;;;;;;;8.36;73.71;100274.13;5079418;28;20116;-65
2023/12/22 01:19:56;;;;;;;11.85;2.97;;;;;;;8.36;72.64;100277.72;5085174;28;20475;-65
2023/12/22 01:22:22;;;;;;;16.40;2.90;;;;;;;8.34;72.28;100268.00;5079148;28;20093;-65
2023/12/22 01:24:48;;;;;;;11.20;3.33;;;;;;;8.35;71.68;100273.28;5086342;28;20020;-65
2023/12/22 01:27:13;;;;;;;16.35;3.00;;;;;;;8.31;70.90;100285.09;5080571;28;20387;-65
2023/12/22 01:29:38;;;;;;;13.73;2.97;;;;;;;8.32;71.87;100295.06;5079953;28;20032;-65
2023/12/22 01:32:04;;;;;;;13.10;3.13;;;;;;;8.27;71.15;100303.28;5080073;28;20039;-65
2023/12/22 01:34:29;;;;;;;16.77;3.17;;;;;;;8.26;71.41;100310.75;5076684;28;20109;-65
2023/12/22 01:36:54;;;;;;;13.80;3.00;;;;;;;8.23;70.74;100299.34;5072820;28;20028;-65
2023/12/22 01:39:20;;;;;;;14.15;3.10;;;;;;;8.17;70.07;100308.63;5085234;28;20024;-65
2023/12/22 01:41:48;;;;;;;16.73;3.10;;;;;;;8.16;70.81;100309.72;5075394;28;20040;-65
2023/12/22 01:44:13;;;;;;;13.85;2.88;;;;;;;8.18;70.22;100313.09;5072544;28;20035;-65
2023/12/22 01:46:38;;;;;;;15.48;2.95;;;;;;;8.09;69.60;100296.06;5074061;28;20032;-65
2023/12/22 01:49:05;;;;;;;14.48;3.30;;;;;;;8.14;70.21;100309.16;5082769;28;20021;-65
2023/12/22 01:51:32;;;;;;;13.80;3.42;;;;;;;8.15;69.94;100308.06;5074805;28;20028;-65
2023/12/22 01:54:00;;;;;;;16.40;4.07;;;;;;;8.15;69.16;100306.13;5074977;28;20029;-65
2023/12/22 01:56:26;;;;;;;11.43;3.03;;;;;;;8.14;69.39;100317.44;5070214;28;20441;-65
2023/12/22 01:58:58;;;;;;;15.30;2.85;;;;;;;8.18;69.42;100316.69;5073500;28;20028;-65
2023/12/22 02:01:24;;;;;;;16.10;3.78;;;;;;;8.20;69.17;100330.25;5074900;28;20036;-65
2023/12/22 02:03:54;;;;;;;11.00;3.15;;;;;;;8.25;69.22;100333.97;5075926;28;20032;-65
2023/12/22 02:06:20;;;;;;;18.40;3.40;;;;;;;8.18;68.39;100336.03;5070987;28;20033;-65
2023/12/22 02:08:49;;;;;;;15.63;3.20;;;;;;;8.14;69.05;100332.09;5083376;28;20028;-65
2023/12/22 02:11:15;;;;;;;15.20;2.95;;;;;;;8.12;68.94;100340.63;5084110;28;20036;-65
2023/12/22 02:13:45;;;;;;;16.23;3.42;;;;;;;8.11;68.92;100327.91;5083394;28;20055;-65
2023/12/22 02:16:37;;;;;;;14.45;3.60;;;;;;;8.07;69.60;100317.59;5073073;28;20024;-65
2023/12/22 02:19:14;;;;;;;15.05;3.45;;;;;;;8.00;69.24;100300.34;5072897;28;20115;-65
2023/12/22 02:22:00;;;;;;;12.18;3.40;;;;;;;8.02;69.00;100304.53;5073819;28;20124;-65
2023/12/22 02:24:30;;;;;;;16.13;3.38;;;;;;;8.04;69.14;100304.28;5086253;28;20054;-65
2023/12/22 02:26:58;;;;;;;15.20;3.40;;;;;;;8.06;66.91;100302.94;5086853;28;20157;-65
2023/12/22 02:29:25;;;;;;;16.88;3.40;;;;;;;8.08;66.01;100311.81;5073783;28;20041;-65
2023/12/22 02:31:53;;;;;;;17.00;3.03;;;;;;;8.05;65.06;100319.75;5081510;28;20488;-65
2023/12/22 02:34:19;;;;;;;14.63;3.00;;;;;;;8.10;65.98;100328.16;5080814;28;20121;-65
2023/12/22 02:36:47;;;;;;;12.52;2.85;;;;;;;8.12;65.12;100335.09;5073819;28;20032;-65
2023/12/22 02:39:14;;;;;;;9.73;2.92;;;;;;;8.11;63.85;100350.03;5078780;28;20032;-65
2023/12/22 02:41:40;;;;;;;18.13;2.85;;;;;;;8.08;65.52;100360.72;5077457;28;20036;-65
2023/12/22 02:44:06;;;;;;;13.25;2.70;;;;;;;8.04;66.97;100359.56;5087113;28;20051;-65
2023/12/22 02:46:31;;;;;;;10.23;2.97;;;;;;;7.94;68.30;100329.81;5080997;28;20483;-65
2023/12/22 02:48:57;;;;;;;16.65;3.28;;;;;;;7.87;68.92;100337.41;5073720;28;20029;-65
2023/12/22 02:51:22;;;;;;;19.88;3.45;;;;;;;7.91;69.56;100337.75;5076072;28;20035;-65
2023/12/22 02:53:47;;;;;;;13.40;3.35;;;;;;;7.80;69.68;100334.81;5083165;28;20059;-65
2023/12/22 02:56:13;;;;;;;14.48;3.05;;;;;;;7.75;69.63;100326.44;5092275;28;20352;-65
2023/12/22 02:58:38;;;;;;;18.30;2.83;;;;;;;7.82;70.56;100323.50;5080265;28;20040;-65
2023/12/22 03:01:03;;;;;;;10.88;2.85;;;;;;;7.86;70.62;100316.41;5077838;28;20040;-65
2023/12/22 03:03:29;;;;;;;13.15;2.97;;;;;;;7.92;71.08;100307.09;5077474;28;20032;-65
2023/12/22 03:05:54;;;;;;;13.50;3.05;;;;;;;7.94;70.75;100304.94;5083519;28;20442;-65
2023/12/22 03:08:19;;;;;;;15.88;2.92;;;;;;;7.99;70.61;100312.50;5077596;28;20020;-65
2023/12/22 03:10:44;;;;;;;16.05;3.55;;;;;;;8.04;71.26;100309.81;5090004;28;20028;-65
2023/12/22 03:13:10;;;;;;;12.07;3.00;;;;;;;8.09;71.31;100302.44;5079744;28;20464;-65
2023/12/22 03:15:35;;;;;;;15.77;3.15;;;;;;;8.12;71.06;100298.34;5075488;28;20490;-65
2023/12/22 03:18:03;;;;;;;12.98;3.90;;;;;;;8.14;72.07;100290.63;5074330;28;20068;-65
2023/12/22 03:20:28;;;;;;;13.82;3.20;;;;;;;8.17;71.56;100292.88;5081723;28;20020;-65
2023/12/22 03:22:54;;;;;;;17.63;3.28;;;;;;;8.20;71.68;100291.56;5075424;28;20082;-65
2023/12/22 03:25:19;;;;;;;14.63;3.55;;;;;;;8.22;71.70;100301.28;5086334;28;20024;-65
2023/12/22 03:27:44;;;;;;;17.70;3.47;;;;;;;8.23;72.10;100285.53;5089653;28;20476;-65
2023/12/22 03:30:10;;;;;;;18.70;3.15;;;;;;;8.25;71.77;100294.38;5077251;28;20025;-65
2023/12/22 03:32:35;;;;;;;16.13;3.50;;;;;;;8.27;72.21;100303.28;5075513;28;20490;-65
2023/12/22 03:35:00;;;;;;;14.10;3.45;;;;;;;8.28;72.48;100293.91;5077406;28;20020;-65
2023/12/22 03:37:26;;;;;;;19.10;3.20;;;;;;;8.29;72.70;100293.66;5074018;28;20120;-65
2023/12/22 03:39:51;;;;;;;11.20;3.45;;;;;;;8.31;72.34;100293.41;5074635;28;20506;-65
2023/12/22 03:42:16;;;;;;;13.07;2.90;;;;;;;8.29;71.81;100290.91;5073778;28;20021;-65
2023/12/22 03:44:42;;;;;;;13.23;2.83;;;;;;;8.30;72.50;100295.34;5079869;28;20033;-65
2023/12/22 03:47:07;;;;;;;12.25;2.95;;;;;;;8.30;72.29;100297.25;5075570;28;20036;-65
2023/12/22 03:49:32;;;;;;;15.27;2.35;;;;;;;8.32;72.11;100306.13;5076402;28;20103;-65
2023/12/22 03:51:58;;;;;;;14.60;2.70;;;;;;;8.24;72.22;100303.78;5073517;28;20059;-65
2023/12/22 03:54:23;;;;;;;11.77;2.60;;;;;;;8.21;71.77;100307.03;5081154;28;20475;-65
2023/12/22 03:56:48;;;;;;;15.90;3.63;;;;;;;8.26;71.82;100304.38;5076840;28;20044;-65
2023/12/22 03:59:13;;;;;;;10.77;3.05;;;;;;;8.26;72.49;100301.63;5084677;28;20036;-65
2023/12/22 04:01:42;;;;;;;17.30;3.35;;;;;;;8.24;72.03;100309.31;5080362;28;20043;-65
2023/12/22 04:04:07;;;;;;;14.18;3.33;;;;;;;8.26;72.31;100307.16;5084957;28;20532;-65
2023/12/22 04:06:33;;;;;;;12.77;2.85;;;;;;;8.29;72.35;100315.78;5072677;28;20029;-65
2023/12/22 04:08:58;;;;;;;14.35;3.95;;;;;;;8.32;71.51;100326.31;5071886;28;20082;-65
2023/12/22 04:11:23;;;;;;;13.07;2.65;;;;;;;8.34;71.56;100328.84;5073265;28;20032;-65
2023/12/22 04:13:49;;;;;;;17.05;3.05;;;;;;;8.34;71.52;100323.31;5074497;28;20546;-65
2023/12/22 04:16:14;;;;;;;11.18;2.55;;;;;;;8.36;71.44;100326.66;5086660;28;20082;-65
2023/12/22 04:18:39;;;;;;;11.90;2.33;;;;;;;8.35;70.57;100327.75;5089636;28;20035;-65
2023/12/22 04:21:05;;;;;;;14.95;3.40;;;;;;;8.34;71.18;100343.50;5079608;28;20158;-65
2023/12/22 04:23:30;;;;;;;14.98;2.97;;;;;;;8.34;70.92;100334.38;5072964;28;20034;-65
2023/12/22 04:25:55;;;;;;;9.75;2.67;;;;;;;8.37;70.59;100331.16;5079388;28;20085;-65
2023/12/22 04:28:20;;;;;;;16.35;3.08;;;;;;;8.36;70.54;100341.31;5087224;28;20123;-65
2023/12/22 04:30:48;;;;;;;14.73;3.03;;;;;;;8.35;71.17;100350.72;5078273;28;20038;-65
2023/12/22 04:33:14;;;;;;;14.30;3.13;;;;;;;8.35;69.95;100350.72;5078227;28;20032;-66
2023/12/22 04:35:39;;;;;;;12.52;3.05;;;;;;;8.32;68.80;100353.13;5077114;28;20386;-65
2023/12/22 04:38:04;;;;;;;14.98;3.00;;;;;;;8.29;68.19;100350.84;5081943;28;20082;-65
2023/12/22 04:40:30;;;;;;;14.65;2.85;;;;;;;8.29;68.69;100346.19;5085744;28;20051;-65
2023/12/22 04:42:55;;;;;;;11.85;2.88;;;;;;;8.29;68.79;100362.78;5077641;28;20025;-65
2023/12/22 04:45:20;;;;;;;11.52;2.95;;;;;;;8.28;68.22;100354.72;5084255;28;20059;-65
2023/12/22 04:47:45;;;;;;;16.27;3.20;;;;;;;8.28;67.79;100354.72;5080801;28;20035;-65
2023/12/22 04:50:11;;;;;;;16.45;4.05;;;;;;;8.27;67.77;100353.88;5075779;28;20025;-65
2023/12/22 04:52:36;;;;;;;14.52;2.78;;;;;;;8.28;68.20;100352.78;5072859;28;20040;-65
2023/12/22 04:55:05;;;;;;;13.77;2.85;;;;;;;8.28;68.46;100351.97;5071766;28;20113;-65
2023/12/22 04:57:30;;;;;;;12.57;3.30;;;;;;;8.30;69.18;100347.03;5085469;28;20043;-65
2023/12/22 04:59:55;;;;;;;12.45;3.30;;;;;;;8.30;69.75;100347.03;5078870;28;20020;-65
2023/12/22 05:02:23;;;;;;;15.68;3.00;;;;;;;8.31;69.68;100357.00;5076265;28;20433;-65
2023/12/22 05:04:48;;;;;;;13.45;3.15;;;;;;;8.32;69.79;100358.66;5089286;28;20510;-65
2023/12/22 05:07:14;;;;;;;16.23;3.10;;;;;;;8.30;69.75;100358.09;5078354;28;20035;-65
2023/12/22 05:09:41;;;;;;;10.93;2.72;;;;;;;8.34;70.62;100367.56;5073503;28;20028;-65
2023/12/22 05:12:07;;;;;;;14.57;3.30;;;;;;;8.34;70.59;100371.16;5086264;28;20089;-65
2023/12/22 05:14:32;;;;;;;10.38;2.60;;;;;;;8.43;70.77;100379.06;5075610;28;20028;-65
2023/12/22 05:16:57;;;;;;;10.65;2.80;;;;;;;8.43;71.85;100360.53;5085621;28;20103;-65
2023/12/22 05:19:22;;;;;;;13.32;3.00;;;;;;;8.46;72.67;100361.97;5088886;28;20032;-65
2023/12/22 05:21:52;;;;;;;11.10;3.15;;;;;;;8.44;73.44;100364.97;5079088;28;20025;-66
2023/12/22 05:24:17;;;;;;;12.23;3.03;;;;;;;8.43;74.03;100376.31;5082007;28;20028;-65
2023/12/22 05:26:43;;;;;;;17.85;3.85;;;;;;;8.42;74.82;100367.19;5081486;28;20035;-65
2023/12/22 05:29:09;;;;;;;16.27;2.92;;;;;;;8.43;74.41;100366.06;5078249;28;20051;-66
2023/12/22 05:31:34;;;;;;;15.32;3.47;;;;;;;8.38;75.02;100366.00;5082398;28;20028;-65
2023/12/22 05:33:59;;;;;;;20.15;4.35;;;;;;;8.42;75.95;100353.34;5078412;28;20021;-65
2023/12/22 05:36:25;;;;;;;16.13;4.07;;;;;;;8.41;76.64;100364.63;5071763;28;20028;-66
2023/12/22 05:38:50;;;;;;;19.55;4.28;;;;;;;8.39;76.48;100356.59;5083868;28;20515;-65
2023/12/22 05:41:16;;;;;;;18.95;4.22;;;;;;;8.36;76.61;100360.66;5077590;28;20067;-65
2023/12/22 05:43:41;;;;;;;14.57;4.80;;;;;;;8.33;76.64;100336.31;5075244;28;20031;-66
2023/12/22 05:46:06;;;;;;;22.58;4.75;;;;;;;8.34;77.33;100351.81;5075918;28;20031;-66
2023/12/22 05:48:33;;;;;;;19.00;4.90;;;;;;;8.34;77.83;100348.19;5081474;28;20347;-66
2023/12/22 05:50:59;;;;;;;21.40;4.10;;;;;;;8.36;78.10;100343.25;5069923;28;20119;-66
2023/12/22 05:53:24;;;;;;;17.00;4.50;;;;;;;8.40;78.50;100355.50;5077737;28;20123;-65
2023/12/22 05:55:55;;;;;;;26.48;5.40;;;;;;;8.39;78.87;100362.13;5084067;28;20103;-66
2023/12/22 05:58:21;;;;;;;21.48;4.88;;;;;;;8.40;78.33;100374.88;5073040;28;20082;-65
2023/12/22 06:00:46;;;;;;;26.35;4.97;;;;;;;8.42;79.01;100350.59;5070029;28;20028;-65
2023/12/22 06:03:11;;;;;;;24.15;4.63;;;;;;;8.46;78.83;100346.22;5078392;28;20071;-66
2023/12/22 06:05:40;;;;;;;22.85;5.55;;;;;;;8.50;78.90;100344.63;5082413;28;20107;-66
2023/12/22 06:08:05;;;;;;;24.65;5.35;;;;;;;8.55;78.85;100354.94;5078940;28;20043;-65
2023/12/22 06:10:30;;;;;;;23.80;4.68;;;;;;;8.54;78.49;100347.72;5078881;28;20029;-66
2023/12/22 06:12:57;;;;;;;17.55;4.43;;;;;;;8.48;79.32;100341.25;5078714;28;20024;-66
2023/12/22 06:15:23;;;;;;;27.63;5.50;;;;;;;8.50;78.79;100341.03;5089373;28;20024;-65
2023/12/22 06:17:48;;;;;;;21.55;4.95;;;;;;;8.53;78.38;100346.06;5075336;28;20485;-65
2023/12/22 06:20:13;;;;;;;23.33;4.95;;;;;;;8.56;78.23;100343.59;5081985;28;20060;-66
2023/12/22 06:22:42;;;;;;;20.77;4.95;;;;;;;8.58;77.92;100333.13;5081681;28;20040;-66
2023/12/22 06:25:09;;;;;;;30.00;5.95;;;;;;;8.56;77.23;100335.31;5094105;28;20024;-66
2023/12/22 06:27:34;;;;;;;23.65;5.60;;;;;;;8.58;77.16;100337.84;5080942;28;20491;-65
2023/12/22 06:29:59;;;;;;;23.35;4.90;;;;;;;8.60;77.71;100339.25;5086332;28;20059;-65
2023/12/22 06:32:25;;;;;;;27.27;5.65;;;;;;;8.60;77.30;100347.53;5086378;28;20479;-66
2023/12/22 06:34:50;;;;;;;27.67;5.68;;;;;;;8.60;77.00;100343.94;5091582;28;20058;-65
2023/12/22 06:37:16;;;;;;;24.73;5.32;;;;;;;8.62;77.15;100343.69;5091060;28;20382;-65
2023/12/22 06:39:42;;;;;;;20.98;5.45;;;;;;;8.64;76.97;100352.56;5083963;28;20108;-66
2023/12/22 06:42:10;;;;;;;25.15;5.80;;;;;;;8.65;77.15;100362.56;5079087;28;20111;-65
2023/12/22 06:44:37;;;;;;;26.25;6.00;;;;;;;8.65;77.49;100376.41;5075837;28;20407;-66
2023/12/22 06:47:02;;;;;;;32.15;6.32;;;;;;;8.62;77.82;100366.66;5090853;28;20047;-66
2023/12/22 06:49:27;;;;;;;34.67;6.45;;;;;;;8.64;77.59;100355.34;5077309;28;20115;-66
2023/12/22 06:51:53;;;;;;;29.25;7.00;;;;;;;8.62;77.33;100360.31;5084093;28;20122;-65
2023/12/22 06:54:18;;;;;;;33.97;6.80;;;;;;;8.58;77.37;100363.56;5091865;28;20034;-65
2023/12/22 06:56:43;;;;;;;33.88;6.60;;;;;;;8.62;77.59;100354.78;5080889;28;20055;-66
2023/12/22 06:59:11;;;;;;;29.33;6.75;;;;;;;8.65;77.41;100359.81;5080772;28;20019;-65
2023/12/22 07:01:37;;;;;;;31.33;6.57;;;;;;;8.70;77.41;100357.09;5087258;28;20047;-65
2023/12/22 07:04:03;;;;;;;27.08;5.60;;;;;;;8.70;77.62;100352.41;5086443;28;20019;-65
2023/12/22 07:06:31;;;;;;;33.63;6.40;;;;;;;8.68;77.59;100359.28;5076930;28;20119;-66
2023/12/22 07:09:11;;;;;;;30.67;6.25;;;;;;;8.72;77.43;100354.91;5076327;28;20071;-64
2023/12/22 07:11:41;;;;;;;34.75;6.75;;;;;;;8.67;77.55;100357.59;5092186;28;20063;-64
2023/12/22 07:14:06;;;;;;;29.42;5.68;;;;;;;8.69;77.30;100347.16;5078799;28;20033;-59
2023/12/22 07:16:32;;;;;;;27.05;6.10;;;;;;;8.69;77.42;100356.28;5084362;28;20059;-63
2023/12/22 07:18:58;;;;;;;33.47;6.78;;;;;;;8.65;77.40;100348.75;5081979;28;20032;-63
2023/12/22 07:21:23;;;;;;;31.60;6.22;;;;;;;8.70;77.23;100346.88;5071695;28;20032;-65
2023/12/22 07:23:48;;;;;;;28.45;6.22;;;;;;;8.75;77.21;100354.41;5082968;28;20024;-63
2023/12/22 07:26:14;;;;;;;34.47;5.90;;;;;;;8.75;77.09;100354.41;5078903;28;20032;-64
2023/12/22 07:28:39;;;;;;;27.13;5.93;;;;;;;8.77;76.87;100364.16;5080300;28;20051;-65
2023/12/22 07:31:05;;;;;;;30.13;6.10;;;;;;;8.78;76.63;100351.97;5078204;28;20733;-65
2023/12/22 07:33:31;;;;;;;29.83;5.93;;;;;;;8.75;76.80;100343.34;5082269;28;20788;-64
2023/12/22 07:35:56;;;;;;;30.25;6.45;;;;;;;8.75;77.27;100344.19;5073873;28;20056;-65
2023/12/22 07:38:21;;;;;;;24.73;5.90;;;;;;;8.81;76.99;100347.88;5080207;28;20078;-64
2023/12/22 07:40:53;;;;;;;31.40;5.93;;;;;;;8.81;77.52;100342.34;5082389;28;20078;-64
2023/12/22 07:43:18;;;;;;;19.88;3.53;;;;;;;9.24;82.48;100346.28;5079398;28;20036;-60
2023/12/22 07:45:43;;;;;;;27.35;5.72;;;;;;;9.09;77.53;100353.25;5078465;28;20074;-65
2023/12/22 07:48:08;;;;;;;40.15;6.05;;;;;;;9.07;77.19;100346.28;5081669;28;20476;-64
2023/12/22 07:50:37;;;;;;;30.15;5.63;;;;;;;9.06;77.01;100356.53;5087665;28;20032;-59
2023/12/22 07:53:02;;;;;;;28.25;5.57;;;;;;;9.05;76.75;100346.56;5077112;28;20078;-59
2023/12/22 07:55:28;;;;;;;33.70;5.90;;;;;;;9.03;77.20;100351.50;5073115;28;20037;-64
2023/12/22 07:57:53;;;;;;;28.55;6.00;;;;;;;9.00;77.17;100343.72;5077226;28;20119;-64
2023/12/22 08:00:18;;;;;;;26.58;5.53;;;;;;;8.99;77.43;100338.44;5077864;28;20032;-63
2023/12/22 08:02:44;;;;;;;26.08;5.25;;;;;;;8.96;77.24;100342.56;5083660;28;20029;-58
2023/12/22 08:05:09;;;;;;;22.75;4.97;;;;;;;8.96;77.53;100350.88;5083805;28;20539;-62
2023/12/22 08:07:35;;;;;;;31.80;6.00;;;;;;;8.95;77.95;100346.41;5082321;28;20031;-63
2023/12/22 08:10:02;;;;;;;22.15;5.43;;;;;;;8.95;78.08;100348.34;5083684;28;20036;-63
2023/12/22 08:12:28;;;;;;;25.85;5.35;;;;;;;8.93;78.49;100356.91;5078367;28;20028;-63
2023/12/22 08:14:53;;;;;;;23.80;5.38;;;;;;;8.95;78.47;100349.19;5083514;28;20024;-63
2023/12/22 08:17:19;;;;;;;21.90;4.80;;;;;;;8.92;78.60;100351.59;5079836;28;20032;-61
2023/12/22 08:19:44;;;;;;;19.40;4.43;;;;;;;8.91;78.78;100353.53;5075469;28;20551;-62
2023/12/22 08:22:10;;;;;;;22.65;4.88;;;;;;;8.90;78.76;100342.75;5076492;28;20546;-62
2023/12/22 08:24:36;;;;;;;20.67;4.45;;;;;;;8.90;79.30;100335.28;5075784;28;20391;-63
2023/12/22 08:27:01;;;;;;;21.20;4.38;;;;;;;8.89;79.30;100339.13;5081951;28;20028;-63
2023/12/22 08:29:27;;;;;;;19.38;4.07;;;;;;;8.92;79.58;100343.31;5082041;28;20032;-63
2023/12/22 08:31:53;;;;;;;17.13;3.92;;;;;;;8.88;79.44;100337.44;5069653;28;20032;-64
2023/12/22 08:34:18;;;;;;;17.38;4.10;;;;;;;8.91;79.87;100361.84;5074355;28;20043;-62
2023/12/22 08:36:44;;;;;;;16.05;3.97;;;;;;;8.92;79.77;100358.00;5081602;28;20024;-61
2023/12/22 08:39:10;;;;;;;12.98;3.38;;;;;;;8.97;80.26;100347.00;5079085;28;20052;-62
2023/12/22 08:41:37;;;;;;;15.27;3.30;;;;;;;8.95;80.50;100340.88;5079992;28;20044;-61
2023/12/22 08:44:04;;;;;;;15.35;3.88;;;;;;;8.99;80.58;100336.50;5078360;28;20020;-61
2023/12/22 08:46:30;;;;;;;15.23;3.95;;;;;;;9.01;80.22;100339.88;5085130;28;20077;-61
2023/12/22 08:48:56;;;;;;;14.85;3.25;;;;;;;8.99;80.12;100328.19;5077086;28;20057;-61
2023/12/22 08:51:21;;;;;;;12.82;3.03;;;;;;;9.02;80.09;100341.53;5074915;28;20116;-62
2023/12/22 08:53:46;;;;;;;15.27;3.40;;;;;;;9.00;81.25;100346.50;5079588;28;20063;-63
2023/12/22 08:56:11;;;;;;;14.60;3.15;;;;;;;9.04;81.62;100341.28;5079392;28;20036;-62
2023/12/22 08:58:37;;;;;;;11.18;2.63;;;;;;;9.05;81.90;100337.44;5073120;28;20315;-61
2023/12/22 09:01:02;;;;;;;15.68;3.05;;;;;;;9.05;81.98;100332.72;5078459;28;20031;-61
2023/12/22 09:03:28;;;;;;;13.82;3.28;;;;;;;9.09;82.24;100333.88;5070420;28;20037;-63
2023/12/22 09:05:54;;;;;;;11.57;2.72;;;;;;;9.12;82.10;100323.38;5089033;28;20085;-63
2023/12/22 09:08:19;;;;;;;12.15;3.17;;;;;;;9.08;83.27;100325.84;5082016;28;20028;-62
2023/12/22 09:10:45;;;;;;;9.63;2.15;;;;;;;9.10;82.95;100330.00;5081807;28;20016;-63
2023/12/22 09:13:11;;;;;;;6.30;2.10;;;;;;;9.11;83.60;100325.31;5072526;28;20925;-62
2023/12/22 09:15:36;;;;;;;13.75;2.58;;;;;;;9.11;83.90;100336.38;5083180;28;20443;-62
2023/12/22 09:18:02;;;;;;;9.85;2.47;;;;;;;9.14;84.04;100329.50;5089818;28;20024;-69
2023/12/22 09:20:29;;;;;;;11.23;2.40;;;;;;;9.16;83.86;100335.63;5071871;28;20029;-63
2023/12/22 09:22:55;;;;;;;11.45;2.17;;;;;;;9.14;84.22;100335.88;5080840;28;20416;-62
2023/12/22 09:25:20;;;;;;;12.05;1.92;;;;;;;9.14;84.22;100335.88;5079482;28;20025;-62
2023/12/22 09:27:45;;;;;;;6.88;2.10;;;;;;;9.15;84.50;100339.47;5076632;28;20415;-63
2023/12/22 09:30:14;;;;;;;6.63;1.70;;;;;;;9.14;84.91;100324.81;5075894;28;20048;-62
2023/12/22 09:32:39;;;;;;;7.63;2.00;;;;;;;9.13;84.99;100345.28;5084555;28;20036;-63
2023/12/22 09:35:08;;;;;;;11.15;2.78;;;;;;;9.48;87.27;100317.22;5085121;28;20028;-62
2023/12/22 09:37:33;;;;;;;5.60;1.63;;;;;;;9.28;85.04;100309.50;5076632;28;20040;-63
2023/12/22 09:39:58;;;;;;;8.68;2.05;;;;;;;9.26;84.72;100299.75;5087925;28;20482;-63
2023/12/22 09:42:25;;;;;;;6.20;1.60;;;;;;;9.27;85.15;100298.66;5084166;28;20028;-64
2023/12/22 09:44:54;;;;;;;6.63;1.73;;;;;;;9.26;84.89;100303.34;5084755;28;20031;-64
2023/12/22 09:47:19;;;;;;;6.68;1.65;;;;;;;9.28;84.98;100300.34;5081433;28;20532;-62
2023/12/22 09:49:46;;;;;;;5.95;1.90;;;;;;;9.28;84.95;100301.19;5088822;28;20029;-61
2023/12/22 09:52:13;;;;;;;6.72;1.85;;;;;;;9.28;84.85;100316.97;5083218;28;20032;-63
2023/12/22 09:54:40;;;;;;;7.68;1.80;;;;;;;9.31;85.18;100308.13;5077279;28;20024;-63
2023/12/22 09:57:05;;;;;;;4.95;1.40;;;;;;;9.32;85.15;100320.91;5090973;28;20521;-65
2023/12/22 09:59:33;;;;;;;6.60;1.98;;;;;;;9.32;85.11;100309.81;5084323;28;20107;-64
2023/12/22 10:02:00;;;;;;;6.05;1.70;;;;;;;9.30;85.51;100300.91;5077994;28;20115;-64
2023/12/22 10:04:26;;;;;;;6.78;1.70;;;;;;;9.36;85.03;100296.28;5081378;28;20062;-64
2023/12/22 10:06:51;;;;;;;4.50;1.60;;;;;;;9.37;85.14;100301.56;5081132;28;20052;-63
2023/12/22 10:09:17;;;;;;;7.60;1.80;;;;;;;9.39;85.04;100293.81;5073270;28;20098;-64
2023/12/22 10:11:49;;;;;;;7.90;1.70;;;;;;;9.39;85.05;100304.88;5079582;28;20374;-64
2023/12/22 10:14:22;;;;;;;6.03;1.70;;;;;;;9.41;85.09;100296.34;5083785;28;20386;-64
2023/12/22 10:16:49;;;;;;;5.15;1.88;;;;;;;9.43;84.64;100295.00;5081530;28;20032;-64
2023/12/22 10:19:14;;;;;;;7.80;1.60;;;;;;;9.46;84.91;100299.16;5075649;28;20028;-64
2023/12/22 10:21:40;;;;;;;6.80;1.95;;;;;;;9.47;84.86;100300.81;5086490;28;20024;-64
2023/12/22 10:24:05;;;;;;;5.80;1.30;;;;;;;9.48;84.63;100308.91;5079074;28;21696;-64
2023/12/22 10:26:30;;;;;;;8.48;1.92;;;;;;;9.49;85.02;100309.72;5080991;28;20031;-64
2023/12/22 10:28:56;;;;;;;6.75;1.70;;;;;;;9.51;84.75;100310.28;5076416;28;20045;-65
2023/12/22 10:31:21;;;;;;;5.55;1.63;;;;;;;9.50;84.77;100305.84;5075535;28;20037;-65
2023/12/22 10:33:46;;;;;;;4.05;1.77;;;;;;;9.52;84.45;100314.75;5083610;28;20032;-66
2023/12/22 10:36:12;;;;;;;6.95;1.70;;;;;;;9.53;84.58;100308.13;5076311;28;20039;-65
2023/12/22 10:38:37;;;;;;;7.18;1.80;;;;;;;9.54;84.57;100302.31;5076455;28;20035;-65
2023/12/22 10:41:05;;;;;;;6.07;1.52;;;;;;;9.55;83.82;100306.78;5080019;28;20484;-65
2023/12/22 10:43:30;;;;;;;3.45;1.48;;;;;;;9.54;83.95;100307.84;5076515;28;20066;-65
2023/12/22 10:45:55;;;;;;;7.00;1.70;;;;;;;9.56;83.66;100302.91;5087122;28;20049;-64
2023/12/22 10:48:22;;;;;;;6.70;1.33;;;;;;;9.56;83.43;100302.91;5084862;28;20391;-65
2023/12/22 10:50:48;;;;;;;5.53;1.63;;;;;;;9.58;83.67;100314.53;5077710;28;20021;-64
2023/12/22 10:53:14;;;;;;;6.13;1.40;;;;;;;9.61;83.04;100306.81;5081495;28;20040;-64
2023/12/22 10:55:40;;;;;;;7.43;1.70;;;;;;;9.61;83.27;100306.81;5081566;28;20060;-63
2023/12/22 10:58:05;;;;;;;5.18;1.60;;;;;;;9.66;83.26;100304.09;5087804;28;20058;-62
2023/12/22 11:00:33;;;;;;;5.43;1.48;;;;;;;9.67;83.00;100305.75;5080588;28;20052;-65
2023/12/22 11:03:04;;;;;;;4.03;1.67;;;;;;;9.68;83.01;100319.38;5075136;28;20043;-64
2023/12/22 11:05:33;;;;;;;8.55;1.63;;;;;;;9.70;82.60;100299.69;5083247;28;20039;-64
2023/12/22 11:08:02;;;;;;;6.20;1.55;;;;;;;9.70;82.62;100303.31;5083356;28;20671;-63
2023/12/22 11:10:30;;;;;;;5.00;1.40;;;;;;;9.70;82.88;100296.94;5077375;28;20078;-64
2023/12/22 11:12:57;;;;;;;6.10;2.00;;;;;;;9.73;82.75;100301.97;5073481;28;20036;-63
2023/12/22 11:15:24;;;;;;;7.90;2.03;;;;;;;9.73;82.01;100288.94;5075704;28;20036;-64
2023/12/22 11:17:51;;;;;;;3.10;1.40;;;;;;;9.73;82.44;100301.97;5071715;28;20044;-62
2023/12/22 11:20:18;;;;;;;3.88;1.55;;;;;;;9.75;82.10;100306.16;5090008;28;20486;-63
2023/12/22 11:22:44;;;;;;;9.40;1.70;;;;;;;9.76;82.18;100296.72;5087885;28;20032;-60